Time;durP1;ratioP1;P1;durP2;ratioP2;P2;SDS_P1;SDS_P2;PMS_P1;PMS_P2;Temp;Humidity;BMP_temperature;BMP_pressure;BME280_temperature;BME280_humidity;BME280_pressure;Samples;Min_cycle;Max_cycle;Signal;HPM_P1;HPM_P2
2023/04/13 00:00:41;;;;;;;0.98;0.98;;;10.90;72.60;;;;;;5023854;28;20135;-85
2023/04/13 00:03:11;;;;;;;1.20;1.10;;;10.90;72.70;;;;;;5040090;28;20036;-86
2023/04/13 00:05:40;;;;;;;1.15;1.10;;;10.90;72.60;;;;;;5039778;28;20033;-86
2023/04/13 00:08:07;;;;;;;0.98;0.98;;;10.90;72.70;;;;;;5039778;28;20102;-87
2023/04/13 00:10:39;;;;;;;1.27;1.17;;;10.90;72.70;;;;;;5040066;28;20104;-86
2023/04/13 00:13:07;;;;;;;1.30;1.20;;;10.90;72.70;;;;;;5040743;28;20033;-86
2023/04/13 00:15:35;;;;;;;1.10;1.10;;;10.90;72.70;;;;;;5039689;28;20480;-85
2023/04/13 00:18:02;;;;;;;1.20;1.10;;;10.90;72.80;;;;;;5039509;28;20029;-86
2023/04/13 00:20:29;;;;;;;1.23;1.05;;;10.90;72.80;;;;;;5040234;28;20512;-86
2023/04/13 00:22:55;;;;;;;1.00;1.00;;;10.90;72.80;;;;;;5039940;28;20033;-86
2023/04/13 00:25:20;;;;;;;1.20;1.08;;;10.90;72.80;;;;;;5023289;28;20036;-85
2023/04/13 00:27:49;;;;;;;0.95;0.95;;;10.80;72.80;;;;;;5022952;28;20057;-86
2023/04/13 00:30:16;;;;;;;1.10;1.00;;;10.80;72.80;;;;;;5023090;28;20079;-85
2023/04/13 00:32:43;;;;;;;0.93;0.93;;;10.80;72.80;;;;;;5057576;28;20032;-86
2023/04/13 00:35:11;;;;;;;1.20;1.10;;;10.80;72.80;;;;;;5039466;28;20041;-86
2023/04/13 00:37:38;;;;;;;1.60;1.20;;;10.80;72.80;;;;;;5023025;28;20049;-85
2023/04/13 00:40:06;;;;;;;0.93;0.93;;;10.80;72.80;;;;;;5039596;28;20021;-86
2023/04/13 00:42:35;;;;;;;0.90;0.90;;;10.80;72.80;;;;;;5039558;28;20017;-86
2023/04/13 00:45:02;;;;;;;1.00;1.00;;;10.80;72.80;;;;;;5038734;28;20029;-85
2023/04/13 00:47:31;;;;;;;1.02;1.02;;;10.80;72.80;;;;;;5039433;28;20028;-86
2023/04/13 00:50:00;;;;;;;1.00;1.00;;;10.80;72.80;;;;;;5022697;28;20060;-87
2023/04/13 00:52:25;;;;;;;2.25;1.10;;;10.80;72.80;;;;;;5038991;28;20108;-85
2023/04/13 00:54:55;;;;;;;1.02;1.02;;;10.80;72.90;;;;;;5022482;28;20565;-85
2023/04/13 00:57:22;;;;;;;1.20;1.10;;;10.70;72.90;;;;;;5022931;28;20035;-86
2023/04/13 00:59:49;;;;;;;1.00;1.00;;;10.80;72.90;;;;;;5038950;28;20139;-85
2023/04/13 01:02:15;;;;;;;1.15;1.10;;;10.70;72.90;;;;;;5039170;28;20025;-86
2023/04/13 01:04:44;;;;;;;1.00;1.00;;;10.70;72.90;;;;;;5006123;28;20033;-86
2023/04/13 01:07:48;;;;;;;0.90;0.90;;;10.80;72.90;;;;;;5022263;28;20116;-84
2023/04/13 01:10:22;;;;;;;1.25;1.00;;;10.70;72.90;;;;;;5038807;28;20029;-86
2023/04/13 01:13:06;;;;;;;1.02;1.02;;;10.70;72.90;;;;;;5022458;28;20033;-85
2023/04/13 01:15:38;;;;;;;1.55;1.20;;;10.70;72.90;;;;;;5022687;28;20041;-85
2023/04/13 01:18:08;;;;;;;1.67;1.00;;;10.70;72.90;;;;;;5039116;28;20031;-85
2023/04/13 01:20:37;;;;;;;1.05;1.05;;;10.70;72.90;;;;;;5022418;28;20091;-85
2023/04/13 01:23:30;;;;;;;1.25;1.10;;;10.70;73.00;;;;;;5022658;28;20029;-86
2023/04/13 01:26:05;;;;;;;1.10;1.00;;;10.70;73.10;;;;;;5022316;28;20055;-86
2023/04/13 01:28:33;;;;;;;1.35;1.20;;;10.70;72.90;;;;;;5022321;28;20488;-87
2023/04/13 01:31:00;;;;;;;1.13;1.10;;;10.70;73.00;;;;;;5022285;28;20549;-85
2023/04/13 01:33:29;;;;;;;1.02;1.00;;;10.70;73.00;;;;;;5037838;28;20055;-85
2023/04/13 01:35:57;;;;;;;1.13;1.02;;;10.70;73.00;;;;;;5022361;28;20044;-85
2023/04/13 01:38:24;;;;;;;2.08;1.13;;;10.70;73.00;;;;;;5021735;28;20033;-86
2023/04/13 01:40:51;;;;;;;1.00;1.00;;;10.70;73.10;;;;;;5022832;28;20037;-85
2023/04/13 01:43:19;;;;;;;1.20;1.10;;;10.70;73.10;;;;;;5005722;28;20029;-87
2023/04/13 01:45:54;;;;;;;1.35;1.20;;;10.70;73.10;;;;;;5023018;28;20036;-86
2023/04/13 01:48:32;;;;;;;1.67;1.05;;;10.70;73.20;;;;;;5026788;28;20037;-85
2023/04/13 01:51:20;;;;;;;1.05;1.02;;;10.60;73.20;;;;;;5031557;28;20036;-85
2023/04/13 01:54:19;;;;;;;1.13;1.10;;;10.70;73.20;;;;;;5028915;28;20115;-85
2023/04/13 01:56:47;;;;;;;1.00;1.00;;;10.60;73.10;;;;;;5021831;28;20079;-85
2023/04/13 01:59:15;;;;;;;1.10;1.00;;;10.60;73.10;;;;;;5021734;28;20020;-85
2023/04/13 02:01:42;;;;;;;1.20;1.10;;;10.60;73.30;;;;;;5005689;28;20036;-86
2023/04/13 02:04:08;;;;;;;1.27;1.10;;;10.60;73.20;;;;;;5021354;28;20453;-86
2023/04/13 02:06:36;;;;;;;1.42;1.13;;;10.60;73.20;;;;;;5037784;28;20033;-87
2023/04/13 02:09:06;;;;;;;1.20;1.10;;;10.60;73.20;;;;;;5038279;28;20032;-85
2023/04/13 02:11:34;;;;;;;1.13;1.10;;;10.60;73.20;;;;;;5020790;28;20029;-85
2023/04/13 02:14:02;;;;;;;1.10;1.00;;;10.60;73.20;;;;;;5021343;28;20029;-86
2023/04/13 02:16:29;;;;;;;1.58;1.10;;;10.60;73.20;;;;;;5005368;28;20045;-85
2023/04/13 02:18:57;;;;;;;1.23;1.00;;;10.60;73.20;;;;;;5037397;28;20029;-85
2023/04/13 02:21:23;;;;;;;0.98;0.98;;;10.60;73.30;;;;;;5005007;28;20025;-86
2023/04/13 02:23:51;;;;;;;1.00;1.00;;;10.60;73.30;;;;;;5004747;28;20035;-85
2023/04/13 02:26:17;;;;;;;1.00;1.00;;;10.60;73.30;;;;;;5005285;28;20044;-86
2023/04/13 02:28:44;;;;;;;1.00;1.00;;;10.60;73.40;;;;;;5020922;28;20117;-85
2023/04/13 02:31:15;;;;;;;1.20;1.10;;;10.60;73.40;;;;;;5037492;28;20025;-86
2023/04/13 02:33:43;;;;;;;1.00;1.00;;;10.60;73.40;;;;;;5037548;28;20029;-85
2023/04/13 02:36:09;;;;;;;1.13;1.10;;;10.60;73.40;;;;;;5020622;28;20061;-86
2023/04/13 02:38:39;;;;;;;1.30;1.20;;;10.60;73.40;;;;;;5021360;28;20025;-86
2023/04/13 02:41:11;;;;;;;2.10;1.20;;;10.60;73.40;;;;;;5021800;28;20484;-85
2023/04/13 02:43:37;;;;;;;1.60;1.20;;;10.60;73.40;;;;;;5020575;28;20028;-86
2023/04/13 02:46:03;;;;;;;1.98;1.20;;;10.60;73.40;;;;;;5021275;28;20060;-87
2023/04/13 02:48:34;;;;;;;1.45;1.23;;;10.60;73.40;;;;;;5006354;28;20064;-87
2023/04/13 02:51:03;;;;;;;1.10;1.00;;;10.60;73.50;;;;;;5004988;28;20037;-85
2023/04/13 02:53:31;;;;;;;1.25;1.15;;;10.60;73.50;;;;;;5021106;28;20036;-86
2023/04/13 02:56:02;;;;;;;1.00;1.00;;;10.50;73.50;;;;;;5005521;28;20043;-85
2023/04/13 02:58:30;;;;;;;1.30;1.20;;;10.60;73.60;;;;;;5036641;28;20040;-86
2023/04/13 03:00:59;;;;;;;1.08;1.08;;;10.60;73.60;;;;;;5021054;28;20375;-86
2023/04/13 03:03:25;;;;;;;1.38;1.27;;;10.60;73.60;;;;;;5036836;28;20021;-85
2023/04/13 03:05:51;;;;;;;1.30;1.20;;;10.60;73.60;;;;;;5036610;28;20107;-87
2023/04/13 03:08:22;;;;;;;1.33;1.10;;;10.50;73.50;;;;;;5021180;28;20051;-85
2023/04/13 03:10:58;;;;;;;1.23;1.13;;;10.60;73.60;;;;;;5022508;28;20468;-85
2023/04/13 03:13:25;;;;;;;1.10;1.00;;;10.60;73.60;;;;;;5020609;28;20033;-86
2023/04/13 03:15:54;;;;;;;0.90;0.90;;;10.60;73.70;;;;;;5004954;28;20112;-85
2023/04/13 03:18:22;;;;;;;1.10;1.10;;;10.50;73.60;;;;;;5003882;28;20094;-86
2023/04/13 03:20:48;;;;;;;1.27;1.17;;;10.50;73.60;;;;;;5020535;28;20183;-86
2023/04/13 03:23:14;;;;;;;1.25;1.00;;;10.50;73.60;;;;;;5004664;28;20120;-87
2023/04/13 03:25:40;;;;;;;0.88;0.88;;;10.50;73.60;;;;;;5003583;28;20029;-87
2023/04/13 03:28:07;;;;;;;2.08;1.13;;;10.60;73.60;;;;;;5004101;28;20082;-86
2023/04/13 03:30:38;;;;;;;1.38;1.08;;;10.50;73.60;;;;;;5020838;28;20477;-86
2023/04/13 03:33:04;;;;;;;1.23;1.10;;;10.50;73.60;;;;;;5019855;28;20033;-87
2023/04/13 03:35:33;;;;;;;1.00;1.00;;;10.60;73.60;;;;;;5004723;28;20060;-85
2023/04/13 03:38:02;;;;;;;1.27;1.17;;;10.50;73.60;;;;;;5004469;28;20096;-85
2023/04/13 03:40:47;;;;;;;;;;;10.50;73.60;;;;;;5036578;28;20087;-86
2023/04/13 03:43:16;;;;;;;1.20;1.10;;;10.50;73.40;;;;;;5036547;28;19909;-86
2023/04/13 03:45:47;;;;;;;1.23;1.10;;;10.50;73.40;;;;;;5021478;28;20033;-86
2023/04/13 03:48:15;;;;;;;1.48;1.10;;;10.50;73.50;;;;;;5005079;28;20037;-86
2023/04/13 03:50:41;;;;;;;1.20;1.20;;;10.50;73.50;;;;;;5003966;28;20021;-86
2023/04/13 03:53:09;;;;;;;1.45;1.25;;;10.40;73.60;;;;;;5004080;28;20120;-85
2023/04/13 03:55:35;;;;;;;1.17;1.08;;;10.50;73.70;;;;;;5020188;28;20128;-85
2023/04/13 03:58:06;;;;;;;1.77;1.13;;;10.40;73.60;;;;;;5005652;28;20029;-87
2023/04/13 04:00:32;;;;;;;1.30;1.20;;;10.40;73.60;;;;;;5035928;28;20052;-86
2023/04/13 04:03:25;;;;;;;1.17;1.00;;;10.40;73.60;;;;;;5035849;28;20034;-85
2023/04/13 04:05:54;;;;;;;1.98;1.30;;;10.40;73.60;;;;;;5036655;28;20048;-86
2023/04/13 04:08:21;;;;;;;1.10;1.00;;;10.40;73.70;;;;;;5036197;28;20032;-87
2023/04/13 04:10:48;;;;;;;1.30;1.23;;;10.30;73.60;;;;;;5003858;28;20029;-86
2023/04/13 04:13:15;;;;;;;1.95;1.30;;;10.30;73.60;;;;;;5020699;28;20044;-86
2023/04/13 04:15:45;;;;;;;1.08;1.08;;;10.30;73.60;;;;;;5020855;28;20048;-86
2023/04/13 04:18:11;;;;;;;1.30;1.20;;;10.30;73.70;;;;;;5036490;28;20478;-86
2023/04/13 04:20:38;;;;;;;1.67;1.25;;;10.30;73.70;;;;;;5023948;28;20037;-87
2023/04/13 04:23:04;;;;;;;1.30;1.20;;;10.30;73.70;;;;;;5023843;28;20055;-87
2023/04/13 04:25:37;;;;;;;1.30;1.13;;;10.30;73.70;;;;;;5030059;28;20067;-86
2023/04/13 04:28:03;;;;;;;1.10;1.10;;;10.30;73.70;;;;;;5012818;28;20036;-86
2023/04/13 04:30:29;;;;;;;1.33;1.10;;;10.30;73.70;;;;;;5013243;28;20060;-85
2023/04/13 04:32:55;;;;;;;1.80;1.00;;;10.20;73.60;;;;;;5040013;28;20025;-87
2023/04/13 04:35:34;;;;;;;1.20;1.10;;;10.30;73.70;;;;;;5039880;28;20041;-86
2023/04/13 04:38:05;;;;;;;1.10;1.10;;;10.20;74.30;;;;;;5039768;28;20072;-85
2023/04/13 04:40:37;;;;;;;1.35;1.25;;;10.20;73.70;;;;;;5040273;28;20086;-86
2023/04/13 04:43:05;;;;;;;1.23;1.13;;;10.20;73.70;;;;;;5024057;28;20124;-84
2023/04/13 04:45:50;;;;;;;1.27;1.08;;;10.20;73.70;;;;;;5040283;28;20555;-88
2023/04/13 04:48:18;;;;;;;1.10;1.10;;;10.20;73.80;;;;;;5022900;28;20032;-86
2023/04/13 04:50:45;;;;;;;1.42;1.05;;;10.20;73.70;;;;;;5022975;28;20416;-88
2023/04/13 04:53:14;;;;;;;1.30;1.20;;;10.10;73.70;;;;;;5007561;28;20029;-87
2023/04/13 04:55:40;;;;;;;1.48;1.38;;;10.10;73.70;;;;;;5022500;28;20033;-86
2023/04/13 04:58:10;;;;;;;1.70;1.10;;;10.10;73.70;;;;;;5007750;28;20128;-87
2023/04/13 05:00:38;;;;;;;1.30;1.20;;;10.10;73.70;;;;;;5006916;28;20067;-85
2023/04/13 05:03:08;;;;;;;1.40;1.30;;;10.10;73.70;;;;;;5022973;28;20056;-86
2023/04/13 05:05:37;;;;;;;1.40;1.30;;;10.10;73.70;;;;;;5007623;28;20362;-87
2023/04/13 05:08:08;;;;;;;1.60;1.40;;;10.10;73.70;;;;;;5023857;28;20477;-87
2023/04/13 05:10:45;;;;;;;1.30;1.20;;;10.10;73.70;;;;;;5039040;28;20031;-86
2023/04/13 05:13:11;;;;;;;1.77;1.50;;;10.10;73.80;;;;;;5038851;28;20029;-86
2023/04/13 05:15:38;;;;;;;1.40;1.30;;;10.10;73.70;;;;;;5022400;28;20438;-86
2023/04/13 05:18:07;;;;;;;1.38;1.27;;;10.00;73.70;;;;;;5022109;28;20033;-85
2023/04/13 05:20:33;;;;;;;1.58;1.45;;;10.00;73.70;;;;;;5022201;28;20024;-86
2023/04/13 05:23:03;;;;;;;1.60;1.50;;;10.00;73.80;;;;;;5038607;28;20029;-86
2023/04/13 05:25:30;;;;;;;2.00;1.80;;;10.00;73.80;;;;;;5022250;28;20048;-84
2023/04/13 05:28:00;;;;;;;2.78;1.70;;;10.00;73.90;;;;;;5023307;28;20025;-85
2023/04/13 05:30:27;;;;;;;1.95;1.50;;;10.00;73.90;;;;;;5020990;28;20485;-84
2023/04/13 05:32:53;;;;;;;2.15;1.55;;;10.00;73.90;;;;;;5021823;28;20017;-85
2023/04/13 05:35:18;;;;;;;1.98;1.70;;;10.00;73.90;;;;;;5021828;28;20076;-84
2023/04/13 05:37:45;;;;;;;1.92;1.70;;;10.00;73.90;;;;;;5022178;28;20055;-87
2023/04/13 05:40:17;;;;;;;2.88;1.80;;;10.00;73.90;;;;;;5007740;28;20095;-85
2023/04/13 05:42:43;;;;;;;2.33;1.65;;;10.00;74.00;;;;;;5021891;28;20041;-84
2023/04/13 05:45:11;;;;;;;1.80;1.70;;;10.00;73.80;;;;;;5022326;28;20028;-85
2023/04/13 05:47:51;;;;;;;2.85;2.05;;;10.00;73.80;;;;;;5009377;28;20029;-85
2023/04/13 05:50:17;;;;;;;1.60;1.48;;;10.00;73.80;;;;;;5021805;28;20036;-87
2023/04/13 05:52:43;;;;;;;2.65;2.10;;;10.00;73.90;;;;;;5037706;28;20029;-85
2023/04/13 05:55:10;;;;;;;2.67;2.03;;;10.00;73.90;;;;;;5005591;28;20084;-85
2023/04/13 05:57:36;;;;;;;2.22;1.98;;;10.00;73.90;;;;;;5021099;28;20071;-86
2023/04/13 06:00:09;;;;;;;2.50;2.00;;;10.00;73.90;;;;;;5007020;28;20032;-86
2023/04/13 06:02:48;;;;;;;3.30;2.15;;;10.00;73.90;;;;;;5038296;28;20031;-86
2023/04/13 06:05:14;;;;;;;3.28;1.88;;;10.00;73.90;;;;;;5038005;28;20385;-87
2023/04/13 06:07:43;;;;;;;2.40;1.92;;;10.00;73.90;;;;;;5037490;28;20025;-86
2023/04/13 06:10:10;;;;;;;2.83;1.85;;;10.00;73.90;;;;;;5021459;28;20033;-86
2023/04/13 06:12:36;;;;;;;3.83;2.42;;;10.00;74.00;;;;;;5021483;28;20119;-86
2023/04/13 06:15:03;;;;;;;2.50;1.90;;;10.00;74.60;;;;;;5037638;28;20104;-87
2023/04/13 06:17:29;;;;;;;2.10;1.90;;;10.00;74.00;;;;;;5021577;28;20025;-86
2023/04/13 06:19:55;;;;;;;2.22;1.85;;;10.00;74.00;;;;;;5038206;28;20086;-86
2023/04/13 06:22:21;;;;;;;2.88;2.10;;;10.00;74.00;;;;;;5021504;28;20025;-86
2023/04/13 06:24:49;;;;;;;3.22;1.90;;;10.00;74.00;;;;;;5037554;28;20036;-86
2023/04/13 06:27:15;;;;;;;2.65;2.00;;;10.00;74.00;;;;;;5037158;28;20058;-86
2023/04/13 06:29:44;;;;;;;3.22;2.00;;;10.00;74.00;;;;;;5005454;28;20049;-86
2023/04/13 06:32:11;;;;;;;3.15;2.30;;;10.00;74.00;;;;;;5004819;28;20124;-85
2023/04/13 06:34:37;;;;;;;2.78;2.00;;;10.00;74.10;;;;;;5020897;28;20033;-84
2023/04/13 06:37:04;;;;;;;2.22;1.90;;;10.00;74.10;;;;;;5020481;28;20041;-86
2023/04/13 06:39:38;;;;;;;2.40;2.15;;;10.00;74.10;;;;;;5022291;28;20032;-84
2023/04/13 06:42:06;;;;;;;3.10;2.25;;;10.00;74.10;;;;;;5004788;28;20037;-85
2023/04/13 06:44:48;;;;;;;3.08;2.10;;;10.10;74.10;;;;;;5009657;28;20037;-85
2023/04/13 06:47:15;;;;;;;2.88;2.30;;;10.10;74.20;;;;;;5004366;28;20128;-85
2023/04/13 06:49:42;;;;;;;3.60;2.50;;;10.10;74.20;;;;;;5021300;28;20029;-85
2023/04/13 06:52:08;;;;;;;3.15;2.30;;;10.00;74.10;;;;;;5004642;28;20035;-84
2023/04/13 06:54:34;;;;;;;2.75;2.00;;;10.10;74.20;;;;;;5021485;28;20036;-84
2023/04/13 06:57:06;;;;;;;3.65;2.42;;;10.10;74.20;;;;;;5022260;28;20036;-85
2023/04/13 06:59:32;;;;;;;2.78;2.10;;;10.10;74.20;;;;;;5021054;28;20115;-85
2023/04/13 07:01:58;;;;;;;2.70;2.03;;;10.10;74.20;;;;;;5041579;28;20029;-84
2023/04/13 07:04:27;;;;;;;3.05;2.00;;;10.10;74.20;;;;;;5028077;28;20029;-85
2023/04/13 07:06:53;;;;;;;3.22;2.17;;;10.10;74.30;;;;;;5062728;28;20081;-84
2023/04/13 07:09:19;;;;;;;3.15;2.35;;;10.10;74.20;;;;;;5004843;28;20064;-86
2023/04/13 07:11:45;;;;;;;3.08;2.05;;;10.10;74.20;;;;;;5004352;28;20063;-86
2023/04/13 07:14:13;;;;;;;2.50;2.05;;;10.20;74.30;;;;;;5021014;28;20370;-86
2023/04/13 07:16:39;;;;;;;2.83;2.00;;;10.20;74.30;;;;;;5020703;28;20037;-86
2023/04/13 07:19:04;;;;;;;3.50;2.30;;;10.20;74.30;;;;;;5021488;28;20191;-85
2023/04/13 07:21:32;;;;;;;2.95;2.10;;;10.20;74.30;;;;;;5004119;28;20056;-85
2023/04/13 07:24:03;;;;;;;2.70;2.05;;;10.20;74.20;;;;;;5036976;28;20033;-85
2023/04/13 07:26:30;;;;;;;2.33;1.92;;;10.20;74.20;;;;;;5036652;28;20037;-86
2023/04/13 07:28:57;;;;;;;2.35;1.90;;;10.20;74.20;;;;;;5020283;28;20032;-85
2023/04/13 07:31:26;;;;;;;2.25;1.90;;;10.20;74.20;;;;;;5020560;28;20033;-84
2023/04/13 07:33:53;;;;;;;2.75;2.20;;;10.20;74.20;;;;;;5004390;28;20025;-84
2023/04/13 07:36:27;;;;;;;2.10;1.70;;;10.20;74.20;;;;;;5036767;28;20075;-85
2023/04/13 07:38:55;;;;;;;2.88;2.00;;;10.30;74.30;;;;;;5005598;28;20052;-86
2023/04/13 07:41:23;;;;;;;2.55;1.95;;;10.30;74.30;;;;;;5020902;28;20465;-85
2023/04/13 07:43:53;;;;;;;3.00;1.90;;;10.30;74.30;;;;;;5006747;28;20037;-86
2023/04/13 07:46:25;;;;;;;2.58;1.98;;;10.30;74.30;;;;;;5021020;28;20040;-87
2023/04/13 07:48:51;;;;;;;2.45;2.10;;;10.30;74.30;;;;;;5005464;28;20029;-86
2023/04/13 07:51:22;;;;;;;2.25;1.80;;;10.30;74.30;;;;;;5006249;28;20116;-86
2023/04/13 07:53:51;;;;;;;2.88;2.20;;;10.30;74.30;;;;;;5038767;28;20064;-86
2023/04/13 07:56:17;;;;;;;2.92;1.80;;;10.40;74.30;;;;;;5041073;28;20025;-85
2023/04/13 07:58:44;;;;;;;2.15;1.80;;;10.40;74.30;;;;;;5025204;28;20091;-85
2023/04/13 08:01:10;;;;;;;2.55;1.70;;;10.40;74.30;;;;;;5041406;28;20056;-86
2023/04/13 08:03:36;;;;;;;2.10;1.80;;;10.40;74.30;;;;;;5009378;28;20093;-87
2023/04/13 08:06:10;;;;;;;2.67;1.75;;;10.40;74.30;;;;;;5010500;28;20068;-86
2023/04/13 08:08:36;;;;;;;2.13;1.80;;;10.40;75.00;;;;;;5024659;28;20025;-86
2023/04/13 08:11:02;;;;;;;2.22;1.70;;;10.40;74.30;;;;;;5042445;28;20021;-87
2023/04/13 08:13:29;;;;;;;2.92;1.80;;;10.40;74.30;;;;;;5025371;28;20037;-85
2023/04/13 08:15:56;;;;;;;2.42;1.83;;;10.40;74.30;;;;;;5058093;28;20053;-87
2023/04/13 08:18:23;;;;;;;1.85;1.60;;;10.50;74.40;;;;;;5040388;28;20040;-86
2023/04/13 08:20:49;;;;;;;2.63;2.00;;;10.50;74.40;;;;;;5007387;28;20029;-85
2023/04/13 08:23:17;;;;;;;2.70;1.85;;;10.50;74.40;;;;;;5040283;28;20086;-85
2023/04/13 08:25:44;;;;;;;2.03;1.58;;;10.50;74.40;;;;;;5039988;28;20072;-84
2023/04/13 08:28:09;;;;;;;2.60;1.70;;;10.50;74.40;;;;;;5023221;28;20105;-84
2023/04/13 08:30:35;;;;;;;3.08;1.63;;;10.60;74.50;;;;;;5023608;28;20114;-86
2023/04/13 08:33:02;;;;;;;3.40;2.08;;;10.60;74.40;;;;;;5023811;28;20025;-85
2023/04/13 08:35:31;;;;;;;2.45;1.83;;;10.60;74.40;;;;;;5023182;28;20048;-87
2023/04/13 08:38:01;;;;;;;3.47;1.90;;;10.70;74.50;;;;;;5023295;28;20143;-85
2023/04/13 08:40:27;;;;;;;4.60;2.30;;;10.70;74.40;;;;;;5039696;28;20033;-85
2023/04/13 08:42:55;;;;;;;2.10;1.73;;;10.70;74.40;;;;;;5023233;28;20454;-86
2023/04/13 08:45:22;;;;;;;2.50;1.75;;;10.70;74.30;;;;;;5023272;28;20036;-85
2023/04/13 08:47:48;;;;;;;3.42;1.90;;;10.80;74.40;;;;;;5006852;28;20065;-85
2023/04/13 08:50:17;;;;;;;2.10;1.70;;;10.80;74.40;;;;;;5023001;28;20119;-85
2023/04/13 08:52:47;;;;;;;2.90;1.77;;;10.80;74.30;;;;;;5022786;28;20079;-85
2023/04/13 08:55:16;;;;;;;3.75;1.90;;;10.80;74.30;;;;;;5022841;28;20037;-85
2023/04/13 08:57:47;;;;;;;2.58;1.90;;;10.80;74.30;;;;;;5023722;28;20092;-85
2023/04/13 09:00:17;;;;;;;3.03;1.77;;;10.90;74.30;;;;;;5022655;28;20115;-86
2023/04/13 09:02:47;;;;;;;2.58;1.98;;;10.90;74.30;;;;;;5039811;28;20033;-85
2023/04/13 09:05:15;;;;;;;3.28;2.00;;;10.90;74.30;;;;;;5022719;28;20024;-84
2023/04/13 09:07:55;;;;;;;2.88;1.88;;;10.90;74.30;;;;;;5023296;28;20025;-86
2023/04/13 09:10:22;;;;;;;2.67;1.70;;;11.00;74.40;;;;;;5022655;28;20036;-85
2023/04/13 09:12:51;;;;;;;4.40;1.77;;;11.00;74.30;;;;;;5022168;28;20036;-85
2023/04/13 09:15:17;;;;;;;2.65;1.50;;;11.00;74.30;;;;;;5038622;28;20083;-86
2023/04/13 09:17:52;;;;;;;3.10;1.50;;;11.00;74.30;;;;;;5023784;28;20013;-85
2023/04/13 09:20:21;;;;;;;2.72;1.50;;;11.00;74.30;;;;;;5038875;28;20037;-86
2023/04/13 09:22:51;;;;;;;1.80;1.60;;;11.00;74.30;;;;;;5056132;28;20087;-86
2023/04/13 09:25:28;;;;;;;3.70;1.80;;;11.10;74.40;;;;;;5022423;28;20037;-86
2023/04/13 09:27:55;;;;;;;3.20;1.67;;;11.10;74.30;;;;;;5039076;28;20493;-86
2023/04/13 09:30:23;;;;;;;2.60;1.70;;;11.10;74.30;;;;;;5038492;28;20029;-86
2023/04/13 09:33:04;;;;;;;4.63;1.83;;;11.20;75.00;;;;;;5038079;28;20033;-85
2023/04/13 09:35:31;;;;;;;2.30;1.50;;;11.20;74.30;;;;;;5022449;28;20041;-85
2023/04/13 09:37:58;;;;;;;4.55;1.88;;;11.20;74.20;;;;;;5038640;28;20066;-85
2023/04/13 09:40:26;;;;;;;3.08;1.58;;;11.20;74.20;;;;;;5062034;28;20025;-86
2023/04/13 09:43:02;;;;;;;2.65;1.60;;;11.30;74.30;;;;;;5047618;28;20040;-85
2023/04/13 09:45:44;;;;;;;3.70;1.58;;;11.30;74.30;;;;;;5041167;28;20029;-85
2023/04/13 09:48:21;;;;;;;2.35;1.60;;;11.30;74.30;;;;;;5039179;28;20025;-86
2023/04/13 09:51:01;;;;;;;3.13;1.42;;;11.40;74.30;;;;;;5022385;28;20037;-86
2023/04/13 09:53:37;;;;;;;2.17;1.40;;;11.40;74.20;;;;;;5021459;28;20052;-86
2023/04/13 09:56:03;;;;;;;2.10;1.40;;;11.40;74.10;;;;;;5056092;28;20033;-86
2023/04/13 09:58:30;;;;;;;2.60;1.48;;;11.50;74.20;;;;;;5021509;28;20124;-91
2023/04/13 10:00:56;;;;;;;2.72;1.60;;;11.50;74.10;;;;;;5038672;28;20059;-87
2023/04/13 10:03:22;;;;;;;2.78;1.42;;;11.50;74.10;;;;;;5021386;28;20067;-85
2023/04/13 10:05:48;;;;;;;4.45;1.83;;;11.60;74.10;;;;;;5005402;28;20040;-85
2023/04/13 10:08:14;;;;;;;4.20;1.48;;;11.60;74.00;;;;;;5037926;28;20029;-87
2023/04/13 10:10:41;;;;;;;2.55;1.50;;;11.70;74.00;;;;;;5021378;28;20103;-85
2023/04/13 10:13:22;;;;;;;2.38;1.30;;;11.70;74.00;;;;;;5022062;28;20075;-85
2023/04/13 10:16:16;;;;;;;2.83;1.65;;;11.80;74.00;;;;;;5036751;28;20095;-85
2023/04/13 10:19:04;;;;;;;1.98;1.40;;;11.80;73.90;;;;;;5020793;28;20499;-86
2023/04/13 10:21:38;;;;;;;3.25;1.30;;;11.90;74.50;;;;;;5037968;28;20094;-86
2023/04/13 10:24:05;;;;;;;3.70;1.75;;;11.90;73.70;;;;;;5021369;28;20029;-86
2023/04/13 10:26:34;;;;;;;1.75;1.30;;;12.00;73.70;;;;;;5037495;28;20119;-86
2023/04/13 10:29:01;;;;;;;2.85;1.48;;;12.10;73.70;;;;;;5054892;28;20036;-86
2023/04/13 10:31:36;;;;;;;1.55;1.40;;;12.10;73.70;;;;;;5054999;28;20443;-86
2023/04/13 10:34:04;;;;;;;3.58;1.30;;;12.20;73.70;;;;;;5020999;28;20461;-88
2023/04/13 10:37:02;;;;;;;2.90;1.33;;;12.20;73.60;;;;;;5036640;28;20118;-87
2023/04/13 10:39:33;;;;;;;2.03;1.40;;;12.20;73.60;;;;;;5021151;28;20029;-84
2023/04/13 10:42:05;;;;;;;2.65;1.48;;;12.30;73.40;;;;;;5004789;28;20047;-86
2023/04/13 10:44:43;;;;;;;3.80;1.50;;;12.30;73.30;;;;;;5054997;28;20098;-87
2023/04/13 10:47:10;;;;;;;1.95;1.20;;;12.40;73.40;;;;;;5037132;28;20500;-87
2023/04/13 10:49:36;;;;;;;2.15;1.30;;;12.40;73.30;;;;;;5036710;28;20036;-87
2023/04/13 10:52:02;;;;;;;3.00;1.40;;;12.50;73.40;;;;;;5004388;28;20033;-87
2023/04/13 10:54:29;;;;;;;3.08;1.40;;;12.50;73.40;;;;;;5036679;28;20105;-87
2023/04/13 10:57:03;;;;;;;3.25;1.73;;;12.50;73.40;;;;;;5036948;28;20037;-90
2023/04/13 10:59:43;;;;;;;2.42;1.40;;;12.60;73.40;;;;;;5038275;28;20035;-89
2023/04/13 11:02:11;;;;;;;2.00;1.27;;;12.60;73.40;;;;;;5055228;28;20115;-87
2023/04/13 11:04:47;;;;;;;1.80;1.38;;;12.60;73.30;;;;;;5020552;28;20036;-88
2023/04/13 11:07:15;;;;;;;1.83;1.30;;;12.60;73.40;;;;;;5036801;28;20033;-86
2023/04/13 11:09:46;;;;;;;3.70;1.70;;;12.70;73.40;;;;;;5054381;28;20038;-90
2023/04/13 11:12:16;;;;;;;3.47;1.55;;;12.70;73.40;;;;;;5020401;28;20029;-87
2023/04/13 11:14:46;;;;;;;1.80;1.17;;;12.70;73.40;;;;;;5037044;28;20434;-88
2023/04/13 11:17:14;;;;;;;2.15;1.30;;;12.80;73.40;;;;;;5036930;28;20033;-87
2023/04/13 11:19:47;;;;;;;3.55;1.83;;;12.70;73.30;;;;;;5037156;28;20028;-88
2023/04/13 11:22:22;;;;;;;1.48;1.25;;;12.80;73.40;;;;;;5036844;28;20442;-87
2023/04/13 11:24:49;;;;;;;2.03;1.27;;;12.80;73.40;;;;;;5036688;28;20070;-87
2023/04/13 11:27:25;;;;;;;3.05;1.30;;;12.80;73.40;;;;;;5004479;28;20112;-87
2023/04/13 11:29:59;;;;;;;2.35;1.27;;;12.90;73.50;;;;;;5008216;28;20033;-86
2023/04/13 11:32:25;;;;;;;3.00;1.35;;;12.90;73.50;;;;;;5024765;28;20102;-86
2023/04/13 11:35:08;;;;;;;3.58;1.83;;;12.90;73.40;;;;;;5023950;28;20029;-85
2023/04/13 11:37:39;;;;;;;3.00;1.40;;;13.00;73.50;;;;;;5040525;28;20060;-88
2023/04/13 11:40:16;;;;;;;2.35;1.40;;;13.00;73.40;;;;;;5040469;28;20029;-85
2023/04/13 11:42:45;;;;;;;2.65;1.33;;;13.00;73.40;;;;;;5040377;28;20078;-86
2023/04/13 11:45:13;;;;;;;2.92;1.40;;;13.10;73.40;;;;;;5024113;28;20084;-87
2023/04/13 11:47:40;;;;;;;2.05;1.40;;;13.10;73.40;;;;;;5008167;28;20033;-86
2023/04/13 11:50:06;;;;;;;3.00;1.50;;;13.10;73.40;;;;;;5041084;28;20017;-86
2023/04/13 11:52:34;;;;;;;2.63;1.50;;;13.20;73.40;;;;;;5023796;28;20029;-87
2023/04/13 11:55:05;;;;;;;2.72;1.42;;;13.20;73.40;;;;;;5007602;28;20033;-86
2023/04/13 11:57:34;;;;;;;1.77;1.20;;;13.20;73.40;;;;;;5023864;28;20040;-86
2023/04/13 12:00:00;;;;;;;2.83;1.50;;;13.20;73.40;;;;;;5040337;28;20042;-87
2023/04/13 12:02:28;;;;;;;2.63;1.45;;;13.30;73.50;;;;;;5023806;28;20028;-87
2023/04/13 12:04:55;;;;;;;4.55;1.40;;;13.30;73.50;;;;;;5008111;28;20029;-89
2023/04/13 12:07:21;;;;;;;3.13;1.58;;;13.30;73.50;;;;;;5023633;28;20120;-88
2023/04/13 12:09:49;;;;;;;1.45;1.17;;;13.40;73.50;;;;;;5040282;28;20084;-88
2023/04/13 12:12:21;;;;;;;1.90;1.35;;;13.40;73.60;;;;;;5024505;28;20029;-86
2023/04/13 12:14:55;;;;;;;1.92;1.33;;;13.40;73.50;;;;;;5041516;28;20116;-86
2023/04/13 12:17:21;;;;;;;2.83;1.45;;;13.50;73.60;;;;;;5050914;28;20037;-87
2023/04/13 12:19:53;;;;;;;2.95;1.50;;;13.50;73.50;;;;;;5033953;28;20021;-88
2023/04/13 12:22:20;;;;;;;3.88;1.65;;;13.50;73.60;;;;;;5046474;28;20465;-88
2023/04/13 12:24:46;;;;;;;2.85;1.50;;;13.50;73.60;;;;;;5040507;28;20025;-86
2023/04/13 12:27:12;;;;;;;2.13;1.73;;;13.50;73.60;;;;;;5023297;28;20128;-88
2023/04/13 12:29:39;;;;;;;3.05;1.30;;;13.60;73.60;;;;;;5023406;28;20484;-87
2023/04/13 12:32:14;;;;;;;3.72;1.40;;;13.60;73.60;;;;;;5039801;28;20040;-88
2023/04/13 12:34:40;;;;;;;1.95;1.17;;;13.70;73.70;;;;;;5039933;28;20044;-87
2023/04/13 12:37:06;;;;;;;2.35;1.38;;;13.70;73.70;;;;;;5002856;28;20046;-88
2023/04/13 12:39:32;;;;;;;1.63;1.15;;;13.70;73.70;;;;;;5035539;28;20029;-89
2023/04/13 12:41:58;;;;;;;4.13;1.60;;;13.70;73.70;;;;;;5019640;28;20032;-88
2023/04/13 12:44:23;;;;;;;1.95;1.27;;;13.80;73.70;;;;;;5020386;28;20037;-88
2023/04/13 12:46:50;;;;;;;2.78;1.40;;;13.80;73.60;;;;;;5036077;28;20093;-87
2023/04/13 12:49:18;;;;;;;2.92;1.30;;;13.80;73.70;;;;;;5020130;28;20046;-87
2023/04/13 12:51:44;;;;;;;3.05;1.20;;;13.90;73.70;;;;;;5003186;28;20112;-87
2023/04/13 12:54:12;;;;;;;2.22;1.40;;;14.00;73.70;;;;;;5003117;28;20489;-87
2023/04/13 12:56:41;;;;;;;3.03;1.52;;;14.00;73.70;;;;;;5019592;28;20091;-87
2023/04/13 12:59:07;;;;;;;2.15;1.30;;;14.00;73.60;;;;;;5019471;28;20479;-88